Time;durP1;ratioP1;P1;durP2;ratioP2;P2;SDS_P1;SDS_P2;PMS_P1;PMS_P2;Temp;Humidity;BMP_temperature;BMP_pressure;BME280_temperature;BME280_humidity;BME280_pressure;Samples;Min_cycle;Max_cycle;Signal;HPM_P1;HPM_P2
2022/09/05 00:01:55;;;;;;;1.42;1.33;;;;;;;15.53;79.61;99962.78;4439819;32;35048;-78
2022/09/05 00:05:03;;;;;;;0.93;0.93;;;;;;;15.04;82.56;99963.75;4439215;32;35114;-84
2022/09/05 00:07:49;;;;;;;4.35;2.15;;;;;;;15.87;78.61;99964.69;4439279;32;33655;-79
2022/09/05 00:10:50;;;;;;;0.62;0.62;;;;;;;16.18;76.88;99971.84;4438919;32;33825;-78
2022/09/05 00:13:41;;;;;;;0.60;0.60;;;;;;;16.20;76.43;99964.81;4438233;32;35079;-79
2022/09/05 00:16:37;;;;;;;1.17;1.08;;;;;;;16.31;76.00;99964.56;4438332;32;35206;-83
2022/09/05 00:19:17;;;;;;;1.00;0.85;;;;;;;15.90;78.01;99971.63;4439304;32;34175;-84
2022/09/05 00:22:30;;;;;;;0.30;0.30;;;;;;;15.97;77.20;99964.47;4437764;32;33377;-81
2022/09/05 00:25:44;;;;;;;0.82;0.57;;;;;;;15.91;76.99;99962.84;4439760;32;35155;-81
2022/09/05 00:28:25;;;;;;;0.62;0.62;;;;;;;15.82;77.23;99960.44;4444152;32;34437;-83
2022/09/05 00:31:14;;;;;;;0.82;0.82;;;;;;;15.03;82.10;99967.25;4453778;32;33981;-84
2022/09/05 00:34:26;;;;;;;0.60;0.60;;;;;;;15.75;78.03;99961.47;4433738;32;33136;-84
2022/09/05 00:37:09;;;;;;;0.50;0.50;;;;;;;15.96;76.98;99960.12;4436231;32;35729;-84
2022/09/05 00:39:42;;;;;;;1.35;0.77;;;;;;;16.03;76.23;99957.31;4438314;32;34272;-83
2022/09/05 00:42:18;;;;;;;0.93;0.93;;;;;;;15.48;79.40;99953.28;4426078;32;33354;-83
2022/09/05 00:45:16;;;;;;;0.45;0.45;;;;;;;15.60;79.97;99955.63;4439383;32;34803;-84
2022/09/05 00:47:53;;;;;;;0.60;0.60;;;;;;;15.90;77.69;99953.25;4439672;32;35862;-84
2022/09/05 00:50:29;;;;;;;23.98;2.00;;;;;;;16.12;76.59;99958.88;4453597;32;34019;-85
2022/09/05 00:53:02;;;;;;;0.53;0.53;;;;;;;15.88;77.32;99963.81;4450907;32;33554;-83
2022/09/05 00:55:51;;;;;;;1.20;1.10;;;;;;;15.89;76.55;99964.66;4453306;32;34694;-83
2022/09/05 00:58:57;;;;;;;0.98;0.98;;;;;;;15.85;77.02;99956.00;4445455;32;35807;-84
2022/09/05 01:01:36;;;;;;;0.70;0.70;;;;;;;15.43;79.11;99957.75;4438119;32;34767;-83
2022/09/05 01:04:10;;;;;;;1.20;1.10;;;;;;;15.23;80.03;99956.41;4437731;32;34153;-84
2022/09/05 01:07:05;;;;;;;0.47;0.47;;;;;;;15.56;78.43;99953.97;4438492;32;34043;-78
2022/09/05 01:09:44;;;;;;;0.22;0.22;;;;;;;15.15;81.73;99953.91;4437995;32;35144;-84
2022/09/05 01:12:19;;;;;;;0.80;0.80;;;;;;;14.68;83.38;99950.44;4438027;32;35034;-83
2022/09/05 01:15:00;;;;;;;0.47;0.47;;;;;;;15.57;79.37;99952.22;4439049;32;33400;-84
2022/09/05 01:17:32;;;;;;;0.55;0.55;;;;;;;15.79;77.79;99955.25;4437117;32;34755;-79
2022/09/05 01:20:11;;;;;;;0.77;0.77;;;;;;;15.52;78.52;99955.78;4437880;32;35100;-80
2022/09/05 01:23:05;;;;;;;0.60;0.60;;;;;;;15.84;77.52;99950.75;4424848;32;34671;-83
2022/09/05 01:25:50;;;;;;;2.30;2.10;;;;;;;15.91;76.04;99953.22;4438566;32;34341;-84
2022/09/05 01:28:58;;;;;;;0.73;0.73;;;;;;;15.70;76.81;99951.88;4442827;32;33645;-83
2022/09/05 01:32:16;;;;;;;0.62;0.62;;;;;;;15.75;76.12;99951.84;4453351;32;35060;-80
2022/09/05 01:34:54;;;;;;;0.50;0.50;;;;;;;15.57;77.17;99952.22;4439085;32;34441;-84
2022/09/05 01:37:27;;;;;;;2.30;1.37;;;;;;;14.97;79.44;99949.88;4438979;32;33297;-83
2022/09/05 01:40:18;;;;;;;0.45;0.45;;;;;;;15.20;80.19;99959.06;4437724;32;33962;-83
2022/09/05 01:43:05;;;;;;;0.70;0.70;;;;;;;15.61;77.13;99952.09;4436616;32;35948;-83
2022/09/05 01:45:45;;;;;;;;;;;;;;;15.19;78.91;99952.09;4439076;32;34318;-83
2022/09/05 01:48:55;;;;;;;0.73;0.73;;;;;;;14.49;82.87;99952.47;4438348;32;34196;-83
2022/09/05 01:51:31;;;;;;;1.65;1.55;;;;;;;14.02;85.58;99954.09;4438564;32;33959;-83
2022/09/05 01:54:23;;;;;;;0.60;0.60;;;;;;;14.38;85.33;99957.00;4437143;32;35762;-78
2022/09/05 01:57:07;;;;;;;;;;;;;;;15.05;81.41;99954.13;4437822;32;34398;-82
2022/09/05 01:59:54;;;;;;;0.80;0.80;;;;;;;15.16;79.35;99957.41;4448254;32;32888;-84
2022/09/05 02:02:40;;;;;;;1.20;0.80;;;;;;;15.08;80.07;99954.06;4439387;32;34036;-82
2022/09/05 02:05:23;;;;;;;0.47;0.47;;;;;;;15.21;79.34;99955.53;4439356;32;35053;-83
2022/09/05 02:08:14;;;;;;;2.15;1.33;;;;;;;14.55;81.63;99952.34;4440007;32;34976;-83
2022/09/05 02:10:54;;;;;;;0.65;0.65;;;;;;;15.15;79.07;99956.53;4439818;32;33210;-83
2022/09/05 02:13:34;;;;;;;0.90;0.90;;;;;;;15.20;77.92;99963.47;4439553;32;34260;-83
2022/09/05 02:16:20;;;;;;;0.75;0.75;;;;;;;15.49;76.60;99957.59;4440343;32;35135;-83
2022/09/05 02:19:07;;;;;;;0.70;0.70;;;;;;;15.36;76.97;99955.25;4439941;32;34404;-81
2022/09/05 02:21:41;;;;;;;0.30;0.30;;;;;;;15.26;77.55;99958.09;4440298;32;33507;-82
2022/09/05 02:24:33;;;;;;;0.45;0.45;;;;;;;15.04;78.88;99958.50;4439048;32;33963;-83
2022/09/05 02:27:22;;;;;;;1.23;1.12;;;;;;;14.46;82.40;99960.38;4439626;32;35110;-82
2022/09/05 02:30:14;;;;;;;0.40;0.40;;;;;;;15.07;79.78;99957.56;4440136;32;33557;-78
2022/09/05 02:32:54;;;;;;;0.57;0.57;;;;;;;14.71;80.63;99966.09;4439008;32;33432;-81
2022/09/05 02:35:22;;;;;;;0.90;0.90;;;;;;;15.13;78.30;99955.69;4440243;32;33714;-83
2022/09/05 02:37:58;;;;;;;0.57;0.57;;;;;;;14.68;80.14;99954.78;4439791;32;35033;-82
2022/09/05 02:41:06;;;;;;;0.70;0.70;;;;;;;14.60;80.25;99955.78;4445938;32;35051;-83
2022/09/05 02:43:59;;;;;;;0.50;0.50;;;;;;;14.27;81.88;99956.34;4453637;32;34030;-83
2022/09/05 02:47:25;;;;;;;0.85;0.82;;;;;;;14.91;78.86;99955.25;4453664;32;33893;-83
2022/09/05 02:50:00;;;;;;;0.47;0.47;;;;;;;14.13;81.92;99951.31;4454197;32;34969;-83
2022/09/05 02:52:48;;;;;;;0.73;0.73;;;;;;;14.33;82.42;99957.09;4440860;32;34347;-83
2022/09/05 02:56:01;;;;;;;0.62;0.62;;;;;;;13.84;85.94;99957.84;4439234;32;33384;-77
2022/09/05 02:59:02;;;;;;;1.55;1.45;;;;;;;14.21;85.30;99960.78;4440524;32;33936;-76
2022/09/05 03:01:55;;;;;;;0.68;0.68;;;;;;;15.06;79.25;99967.22;4443473;32;35925;-77
2022/09/05 03:04:33;;;;;;;0.70;0.60;;;;;;;15.23;76.90;99963.37;4448517;32;34319;-76
2022/09/05 03:07:24;;;;;;;0.40;0.40;;;;;;;15.03;77.92;99969.87;4447605;32;34123;-76
2022/09/05 03:10:15;;;;;;;1.00;0.68;;;;;;;14.83;78.40;99958.91;4437931;32;34102;-76
2022/09/05 03:13:08;;;;;;;0.55;0.55;;;;;;;13.81;83.68;99965.75;4425654;32;34352;-76
2022/09/05 03:15:45;;;;;;;0.32;0.32;;;;;;;14.31;82.47;99969.38;4439915;32;34389;-77
2022/09/05 03:18:22;;;;;;;0.85;0.77;;;;;;;14.39;82.13;99970.09;4439975;32;34159;-76
2022/09/05 03:21:17;;;;;;;1.35;1.23;;;;;;;15.05;78.21;99968.09;4439801;32;34063;-77
2022/09/05 03:23:48;;;;;;;0.52;0.52;;;;;;;14.69;79.84;99972.25;4451481;32;35286;-76
2022/09/05 03:26:45;;;;;;;0.50;0.50;;;;;;;14.97;77.54;99978.72;4438995;32;34300;-76
2022/09/05 03:29:25;;;;;;;;;;;;;;;14.96;77.50;99977.03;4439297;32;34315;-77
2022/09/05 03:32:31;;;;;;;0.50;0.50;;;;;;;14.71;78.89;99980.97;4439539;32;34204;-77
2022/09/05 03:35:29;;;;;;;0.50;0.50;;;;;;;14.38;80.64;99971.00;4441610;32;36176;-76
2022/09/05 03:38:15;;;;;;;0.47;0.47;;;;;;;14.15;81.05;99970.47;4439356;32;34392;-84
2022/09/05 03:40:47;;;;;;;0.73;0.62;;;;;;;13.93;82.01;99983.91;4439883;32;34414;-77
2022/09/05 03:43:14;;;;;;;0.50;0.50;;;;;;;13.81;82.88;99981.44;4451526;32;34731;-78
2022/09/05 03:46:47;;;;;;;0.45;0.45;;;;;;;13.75;83.23;99978.94;4455193;32;36028;-84
2022/09/05 03:49:53;;;;;;;0.32;0.32;;;;;;;14.03;82.53;99987.25;4383519;32;35036;-77
2022/09/05 03:52:53;;;;;;;1.67;1.23;;;;;;;14.54;79.92;99984.72;4407316;32;33439;-77
2022/09/05 03:56:10;;;;;;;0.73;0.73;;;;;;;14.68;79.25;99991.50;4438511;32;32773;-84
2022/09/05 03:59:35;;;;;;;2.28;0.85;;;;;;;15.06;75.69;99995.22;4439724;32;35946;-77
2022/09/05 04:02:07;;;;;;;0.43;0.43;;;;;;;14.74;76.86;99999.28;4443856;32;34443;-77
2022/09/05 04:05:06;;;;;;;0.95;0.88;;;;;;;14.12;79.50;100002.81;4455176;32;34078;-77
2022/09/05 04:08:12;;;;;;;1.02;0.98;;;;;;;14.36;79.91;100006.81;4438690;32;33982;-77
2022/09/05 04:11:16;;;;;;;0.93;0.85;;;;;;;13.72;83.28;100007.75;4439554;32;34971;-76
2022/09/05 04:14:18;;;;;;;1.08;1.02;;;;;;;13.55;85.81;100011.41;4438377;32;34449;-77
2022/09/05 04:16:56;;;;;;;0.80;0.50;;;;;;;14.56;79.32;100005.66;4421153;32;34134;-76
2022/09/05 04:19:38;;;;;;;1.50;1.40;;;;;;;14.23;80.76;100014.00;4453933;32;34140;-77
2022/09/05 04:22:21;;;;;;;0.62;0.62;;;;;;;14.23;81.18;100019.25;4451124;32;35152;-77
2022/09/05 04:24:55;;;;;;;1.05;1.05;;;;;;;14.63;78.82;100011.66;4440939;32;32882;-76
2022/09/05 04:27:29;;;;;;;0.43;0.43;;;;;;;13.68;83.05;100027.88;4453582;32;34140;-77
2022/09/05 04:30:01;;;;;;;0.50;0.50;;;;;;;13.98;82.26;100020.50;4443956;32;33957;-77
2022/09/05 04:33:03;;;;;;;0.68;0.37;;;;;;;14.77;79.14;100022.78;4441870;32;34940;-77
2022/09/05 04:35:49;;;;;;;0.40;0.40;;;;;;;14.55;80.40;100024.88;4438306;32;35037;-77
2022/09/05 04:38:35;;;;;;;1.73;1.05;;;;;;;14.68;79.63;100028.19;4449950;32;33860;-76
2022/09/05 04:41:08;;;;;;;1.33;1.23;;;;;;;15.19;77.57;100030.78;4453786;32;33888;-77
2022/09/05 04:43:43;;;;;;;0.50;0.50;;;;;;;15.17;77.37;100035.22;4452629;32;35821;-77
2022/09/05 04:46:23;;;;;;;0.50;0.50;;;;;;;15.11;77.72;100028.31;4447859;32;34093;-79
2022/09/05 04:49:10;;;;;;;1.55;1.20;;;;;;;15.04;78.74;100036.34;4453134;32;33457;-78
2022/09/05 04:52:23;;;;;;;1.23;1.15;;;;;;;15.03;79.61;100042.47;4444820;32;34722;-78
2022/09/05 04:55:06;;;;;;;0.70;0.70;;;;;;;14.99;81.04;100044.28;4412129;32;34790;-88
2022/09/05 04:57:48;;;;;;;0.40;0.40;;;;;;;15.31;80.82;100041.06;4443511;32;35287;-84
2022/09/05 05:00:36;;;;;;;8.98;4.32;;;;;;;15.20;82.66;100043.03;4445143;32;33131;-79
2022/09/05 05:03:26;;;;;;;;;;;;;;;15.57;82.52;100042.31;4443099;32;33650;-79
2022/09/05 05:06:39;;;;;;;0.43;0.43;;;;;;;15.38;84.94;100046.19;4445305;32;35523;-78
2022/09/05 05:09:16;;;;;;;0.60;0.60;;;;;;;15.65;85.53;100044.78;4444989;32;34356;-78
2022/09/05 05:12:03;;;;;;;0.40;0.40;;;;;;;16.12;84.17;100045.56;4442795;32;34212;-88
2022/09/05 05:14:59;;;;;;;0.55;0.55;;;;;;;15.88;85.19;100046.97;4439954;32;33949;-80
2022/09/05 05:18:11;;;;;;;0.53;0.53;;;;;;;15.85;86.43;100052.31;4438058;32;35174;-77
2022/09/05 05:21:03;;;;;;;0.73;0.73;;;;;;;16.67;80.94;100044.28;4438121;32;34732;-83
2022/09/05 05:23:40;;;;;;;1.00;0.98;;;;;;;17.08;80.74;100049.41;4437010;32;33356;-78
2022/09/05 05:26:20;;;;;;;0.40;0.40;;;;;;;17.17;77.98;100054.47;4437145;32;33785;-79
2022/09/05 05:28:57;;;;;;;1.25;1.02;;;;;;;17.17;77.10;100051.84;4437098;32;34961;-78
2022/09/05 05:31:32;;;;;;;0.82;0.68;;;;;;;17.43;75.18;100050.25;4437443;32;34291;-79
2022/09/05 05:34:02;;;;;;;0.35;0.35;;;;;;;17.53;74.73;100053.50;4438146;32;32831;-80
2022/09/05 05:36:56;;;;;;;0.90;0.90;;;;;;;17.94;73.73;100052.34;4447095;32;34013;-82
2022/09/05 05:39:28;;;;;;;1.25;1.15;;;;;;;18.30;73.07;100054.78;4437470;32;33435;-78
2022/09/05 05:41:57;;;;;;;0.85;0.85;;;;;;;17.80;75.17;100059.75;4440065;32;34425;-83
2022/09/05 05:44:55;;;;;;;0.68;0.68;;;;;;;17.22;77.72;100063.09;4450179;32;34333;-79
2022/09/05 05:47:41;;;;;;;0.40;0.40;;;;;;;18.12;77.10;100061.44;4449973;32;33949;-90
2022/09/05 05:50:39;;;;;;;1.52;1.42;;;;;;;18.35;75.87;100063.41;4452150;32;35941;-79
2022/09/05 05:53:22;;;;;;;0.50;0.50;;;;;;;18.48;73.08;100060.38;4431702;32;276435;-79
2022/09/05 05:56:25;;;;;;;1.37;1.00;;;;;;;18.59;68.20;100060.03;4440487;32;33544;-78
2022/09/05 05:59:13;;;;;;;1.33;0.73;;;;;;;19.15;68.42;100057.31;4437761;32;34098;-78
2022/09/05 06:01:53;;;;;;;0.88;0.62;;;;;;;19.22;68.42;100057.94;4436590;32;35943;-80
2022/09/05 06:04:43;;;;;;;1.15;0.75;;;;;;;19.48;69.42;100052.62;4436594;32;34413;-78
2022/09/05 06:07:28;;;;;;;0.20;0.20;;;;;;;20.26;69.82;100059.41;4437164;32;34374;-79
2022/09/05 06:10:24;;;;;;;0.30;0.30;;;;;;;20.15;66.47;100066.88;4436988;32;33871;-79
2022/09/05 06:13:38;;;;;;;0.68;0.62;;;;;;;20.50;66.71;100062.00;4437839;32;35070;-79
2022/09/05 06:17:00;;;;;;;0.95;0.70;;;;;;;21.65;63.21;100061.59;4438177;32;34519;-81
2022/09/05 06:20:22;;;;;;;0.57;0.57;;;;;;;22.07;57.88;100063.22;4438019;32;34256;-79
2022/09/05 06:23:29;;;;;;;0.57;0.57;;;;;;;22.98;58.61;100058.84;4392573;32;33619;-79
2022/09/05 06:26:35;;;;;;;2.12;0.90;;;;;;;22.46;59.12;100058.75;4437828;32;35961;-79
2022/09/05 06:29:41;;;;;;;0.62;0.62;;;;;;;23.75;57.19;100067.28;4437520;32;34404;-78
2022/09/05 06:32:16;;;;;;;1.02;0.90;;;;;;;23.67;57.61;100067.72;4447957;32;33378;-79
2022/09/05 06:35:18;;;;;;;0.73;0.62;;;;;;;24.20;55.90;100071.94;4453268;32;33973;-79
2022/09/05 06:37:58;;;;;;;0.60;0.60;;;;;;;24.97;50.37;100074.69;4450685;32;35075;-81
2022/09/05 06:40:41;;;;;;;0.60;0.60;;;;;;;24.18;50.60;100076.47;4450880;32;34511;-79
2022/09/05 06:43:12;;;;;;;2.28;2.05;;;;;;;24.27;52.01;100080.44;4443821;32;33375;-79
2022/09/05 06:46:13;;;;;;;0.82;0.70;;;;;;;24.28;50.24;100082.13;4451167;32;33874;-79
2022/09/05 06:49:24;;;;;;;;;;;;;;;24.77;50.63;100074.06;4438730;32;35152;-81
2022/09/05 06:52:30;;;;;;;0.98;0.90;;;;;;;24.89;51.69;100090.28;4435726;32;33857;-80
2022/09/05 06:55:26;;;;;;;1.02;0.90;;;;;;;24.28;51.21;100092.78;4440012;32;34199;-82
2022/09/05 06:58:29;;;;;;;0.40;0.40;;;;;;;24.88;50.57;100085.91;4437786;32;34569;-82
2022/09/05 07:00:59;;;;;;;0.50;0.50;;;;;;;25.23;48.21;100083.81;4421988;32;35861;-82
2022/09/05 07:03:31;;;;;;;0.20;0.20;;;;;;;24.73;48.86;100085.84;4434213;32;32816;-78
2022/09/05 07:06:07;;;;;;;1.10;0.95;;;;;;;25.07;49.51;100085.69;4439670;32;33318;-80
2022/09/05 07:08:52;;;;;;;1.20;1.02;;;;;;;24.40;50.37;100091.25;4439494;32;33590;-81
2022/09/05 07:11:21;;;;;;;0.60;0.60;;;;;;;25.07;46.88;100086.53;4445590;32;34799;-79
2022/09/05 07:13:53;;;;;;;1.35;0.85;;;;;;;24.98;47.22;100093.25;4452752;32;34492;-79
2022/09/05 07:16:40;;;;;;;1.17;1.08;;;;;;;25.38;48.92;100091.87;4455144;32;34131;-76
2022/09/05 07:19:26;;;;;;;0.50;0.50;;;;;;;25.03;45.91;100095.66;4440369;32;34751;-77
2022/09/05 07:22:03;;;;;;;1.20;1.10;;;;;;;25.54;44.83;100096.19;4426087;32;34714;-80
2022/09/05 07:24:33;;;;;;;1.10;0.75;;;;;;;25.11;45.82;100098.75;4449780;32;34836;-81
2022/09/05 07:27:48;;;;;;;1.73;1.08;;;;;;;25.51;45.94;100085.69;4437942;32;33537;-80
2022/09/05 07:30:39;;;;;;;0.30;0.30;;;;;;;25.34;47.17;100100.06;4438723;32;33688;-79
2022/09/05 07:33:08;;;;;;;0.65;0.55;;;;;;;26.42;43.72;100092.50;4427633;32;35113;-81
2022/09/05 07:35:37;;;;;;;0.50;0.50;;;;;;;26.61;44.01;100093.09;4436530;32;34069;-79
2022/09/05 07:38:27;;;;;;;0.77;0.77;;;;;;;27.18;43.97;100089.28;4437798;32;33294;-79
2022/09/05 07:41:22;;;;;;;0.55;0.55;;;;;;;27.01;42.03;100093.09;4439778;32;34901;-79
2022/09/05 07:43:58;;;;;;;1.08;1.00;;;;;;;27.67;42.76;100098.44;4440075;32;34985;-81
2022/09/05 07:46:30;;;;;;;1.15;0.98;;;;;;;27.77;41.58;100094.16;4438680;32;34475;-79
2022/09/05 07:49:02;;;;;;;0.77;0.77;;;;;;;27.40;41.17;100091.37;4438221;32;33248;-81
2022/09/05 07:51:33;;;;;;;1.45;1.05;;;;;;;27.56;42.60;100095.66;4439149;32;34828;-80
2022/09/05 07:54:25;;;;;;;0.40;0.40;;;;;;;27.85;41.49;100092.75;4438323;32;34816;-81
2022/09/05 07:57:17;;;;;;;0.25;0.25;;;;;;;28.60;40.10;100086.53;4427824;32;34488;-79
2022/09/05 08:00:07;;;;;;;0.25;0.25;;;;;;;28.24;41.82;100088.25;4439787;32;33463;-85
2022/09/05 08:02:54;;;;;;;0.20;0.20;;;;;;;27.95;40.23;100088.50;4439281;32;34071;-83
2022/09/05 08:05:24;;;;;;;0.80;0.80;;;;;;;29.45;38.11;100083.66;4438351;32;34905;-79
2022/09/05 08:08:06;;;;;;;0.70;0.62;;;;;;;29.88;35.21;100083.00;4442405;32;34974;-78
2022/09/05 08:10:43;;;;;;;4.70;1.40;;;;;;;29.12;40.79;100085.28;4453797;32;33376;-78
2022/09/05 08:13:44;;;;;;;0.57;0.57;;;;;;;29.78;37.01;100090.09;4437707;32;35044;-78
2022/09/05 08:16:19;;;;;;;5.78;1.10;;;;;;;29.66;41.28;100095.41;4439416;32;35201;-81
2022/09/05 08:19:19;;;;;;;1.33;0.98;;;;;;;28.44;39.61;100097.47;4439171;32;35170;-78
2022/09/05 08:21:48;;;;;;;0.82;0.60;;;;;;;28.74;39.46;100094.37;4428033;32;33210;-79
2022/09/05 08:24:38;;;;;;;0.77;0.77;;;;;;;29.11;41.18;100092.44;4437090;32;34854;-78
2022/09/05 08:27:20;;;;;;;0.47;0.47;;;;;;;28.79;41.59;100086.84;4448007;32;34937;-78
2022/09/05 08:29:52;;;;;;;0.52;0.52;;;;;;;28.28;41.53;100089.72;4438643;32;34181;-79
2022/09/05 08:32:47;;;;;;;0.73;0.73;;;;;;;28.78;40.05;100093.19;4437966;32;31904;-78
2022/09/05 08:35:30;;;;;;;1.12;0.75;;;;;;;30.57;36.76;100087.31;4438270;32;34117;-79
2022/09/05 08:37:58;;;;;;;0.80;0.80;;;;;;;28.19;42.73;100093.91;4440716;32;35934;-79
2022/09/05 08:40:34;;;;;;;0.40;0.40;;;;;;;28.98;37.43;100091.69;4434081;32;32751;-79
2022/09/05 08:43:11;;;;;;;0.45;0.45;;;;;;;30.23;38.04;100087.34;4452221;32;34331;-83
2022/09/05 08:46:12;;;;;;;0.45;0.43;;;;;;;30.14;38.40;100088.94;4453506;32;34081;-83
2022/09/05 08:49:28;;;;;;;1.73;1.20;;;;;;;30.70;37.39;100087.16;4452020;32;34625;-82
2022/09/05 08:52:27;;;;;;;1.33;0.93;;;;;;;28.79;40.79;100076.12;4443261;32;35214;-83
2022/09/05 08:54:55;;;;;;;0.60;0.55;;;;;;;30.20;36.47;100080.41;4452822;32;31670;-78
2022/09/05 08:57:45;;;;;;;1.73;0.95;;;;;;;30.00;37.19;100073.97;4453369;32;33877;-83
2022/09/05 09:00:18;;;;;;;1.05;0.95;;;;;;;28.93;41.26;100075.94;4438813;32;35775;-82
2022/09/05 09:03:11;;;;;;;0.85;0.82;;;;;;;30.08;36.98;100069.81;4437588;32;34434;-84
2022/09/05 09:05:56;;;;;;;0.73;0.43;;;;;;;28.52;39.19;100069.16;4437832;32;32978;-84
2022/09/05 09:08:51;;;;;;;0.52;0.52;;;;;;;28.33;41.32;100076.84;4437302;32;34115;-84
2022/09/05 09:11:33;;;;;;;1.90;1.05;;;;;;;28.28;42.15;100061.09;4437491;32;34191;-81
2022/09/05 09:14:28;;;;;;;1.25;0.85;;;;;;;29.79;39.74;100054.19;4447830;32;34641;-84
2022/09/05 09:17:16;;;;;;;1.77;0.82;;;;;;;30.23;39.07;100047.06;4438309;32;34196;-80
2022/09/05 09:19:47;;;;;;;0.85;0.82;;;;;;;29.96;37.83;100044.78;4452737;32;33916;-80
2022/09/05 09:22:38;;;;;;;0.55;0.55;;;;;;;29.68;39.02;100046.97;4454157;32;35023;-82
2022/09/05 09:25:13;;;;;;;0.98;0.95;;;;;;;30.00;37.74;100047.13;4437575;32;34400;-83
2022/09/05 09:28:17;;;;;;;0.60;0.60;;;;;;;28.83;38.84;100050.78;4436362;32;33535;-81
2022/09/05 09:31:14;;;;;;;0.30;0.30;;;;;;;28.96;38.19;100055.22;4438407;32;33849;-81
2022/09/05 09:34:07;;;;;;;0.62;0.62;;;;;;;29.03;37.02;100060.03;4437566;32;35135;-82
2022/09/05 09:36:53;;;;;;;0.80;0.80;;;;;;;29.59;37.92;100063.81;4440795;32;35078;-80
2022/09/05 09:39:44;;;;;;;0.60;0.60;;;;;;;28.70;38.60;100061.59;4438021;32;33481;-79
2022/09/05 09:42:24;;;;;;;0.75;0.75;;;;;;;27.27;40.33;100062.91;4438138;32;34118;-81
2022/09/05 09:45:13;;;;;;;0.43;0.43;;;;;;;28.79;38.32;100060.06;4451029;32;35742;-79
2022/09/05 09:48:15;;;;;;;0.83;0.83;;;;;;;28.52;38.51;100055.75;4448689;32;35138;-81
2022/09/05 09:51:18;;;;;;;0.52;0.52;;;;;;;27.62;39.98;100053.28;4438004;32;33576;-81
2022/09/05 09:54:05;;;;;;;0.73;0.70;;;;;;;27.17;41.15;100049.28;4433772;32;33769;-81
2022/09/05 09:56:55;;;;;;;0.68;0.65;;;;;;;26.00;42.02;100048.97;4437724;32;35980;-80
2022/09/05 09:59:28;;;;;;;0.50;0.50;;;;;;;27.01;41.59;100047.66;4442979;32;34335;-80
2022/09/05 10:01:56;;;;;;;0.82;0.82;;;;;;;27.10;43.08;100051.53;4443260;32;32707;-82
2022/09/05 10:04:53;;;;;;;0.65;0.65;;;;;;;27.42;39.43;100045.78;4437479;32;33486;-81
2022/09/05 10:07:56;;;;;;;0.90;0.75;;;;;;;28.67;37.80;100050.25;4437953;32;35199;-81
2022/09/05 10:10:56;;;;;;;0.60;0.60;;;;;;;28.47;38.05;100044.53;4438195;32;34001;-80
2022/09/05 10:14:12;;;;;;;0.60;0.60;;;;;;;29.13;36.12;100046.75;4441042;32;32355;-81
2022/09/05 10:17:16;;;;;;;0.50;0.50;;;;;;;28.09;41.10;100045.50;4439874;32;33568;-81
2022/09/05 10:20:20;;;;;;;1.35;0.68;;;;;;;26.54;42.99;100035.62;4438537;32;35152;-82
2022/09/05 10:23:35;;;;;;;0.40;0.40;;;;;;;26.89;42.24;100043.13;4439061;32;35239;-80
2022/09/05 10:26:14;;;;;;;0.73;0.60;;;;;;;27.75;41.91;100039.03;4435085;32;33454;-80
2022/09/05 10:29:06;;;;;;;0.93;0.75;;;;;;;27.98;41.16;100037.41;4449051;32;34056;-80
2022/09/05 10:32:01;;;;;;;0.45;0.45;;;;;;;27.54;40.57;100028.03;4438183;32;35207;-82
2022/09/05 10:34:56;;;;;;;1.20;0.45;;;;;;;29.13;39.30;100031.50;4440437;32;34266;-82
2022/09/05 10:37:51;;;;;;;0.90;0.37;;;;;;;28.90;42.95;100027.91;4455500;32;33406;-82
2022/09/05 10:40:24;;;;;;;0.37;0.37;;;;;;;29.40;37.88;100025.00;4455493;32;34162;-81
2022/09/05 10:43:07;;;;;;;0.95;0.70;;;;;;;29.11;38.55;100022.72;4454898;32;35758;-79
2022/09/05 10:45:52;;;;;;;0.98;0.88;;;;;;;28.64;39.16;100023.69;4438336;32;34413;-82
2022/09/05 10:48:42;;;;;;;15.68;1.35;;;;;;;28.66;37.89;100011.88;4438449;32;33712;-81
2022/09/05 10:51:18;;;;;;;1.02;0.80;;;;;;;28.61;38.56;100016.75;4439246;32;34092;-80
2022/09/05 10:54:39;;;;;;;0.30;0.30;;;;;;;27.59;41.51;100015.19;4443706;32;34592;-80
2022/09/05 10:57:10;;;;;;;0.65;0.65;;;;;;;27.79;40.50;100011.94;4406907;32;33997;-81
2022/09/05 11:00:03;;;;;;;0.77;0.75;;;;;;;28.47;40.25;100009.69;4405794;32;33293;-81
2022/09/05 11:02:56;;;;;;;0.75;0.55;;;;;;;29.13;40.38;100004.69;4433319;32;33861;-80
2022/09/05 11:05:26;;;;;;;1.10;1.00;;;;;;;29.65;36.15;100010.50;4438643;32;35329;-82
2022/09/05 11:08:07;;;;;;;0.60;0.60;;;;;;;28.62;39.71;100004.19;4438735;32;33680;-81
2022/09/05 11:10:38;;;;;;;0.90;0.50;;;;;;;27.72;39.48;100005.31;4439756;32;33457;-81
2022/09/05 11:13:09;;;;;;;0.50;0.50;;;;;;;27.48;39.78;99999.03;4438834;32;34795;-81
2022/09/05 11:16:03;;;;;;;0.65;0.62;;;;;;;28.79;41.44;99995.72;4439097;32;35262;-81
2022/09/05 11:18:49;;;;;;;1.17;0.47;;;;;;;28.18;38.74;99995.78;4438512;32;34394;-81
2022/09/05 11:21:35;;;;;;;0.88;0.73;;;;;;;29.20;37.86;99983.63;4438430;32;34210;-81
2022/09/05 11:24:29;;;;;;;0.95;0.80;;;;;;;29.01;36.87;99994.91;4439322;32;34779;-81
2022/09/05 11:27:04;;;;;;;1.60;0.93;;;;;;;27.95;38.80;100000.16;4445430;32;34609;-79
2022/09/05 11:30:03;;;;;;;0.50;0.50;;;;;;;29.17;38.66;99991.91;4452824;32;34405;-80
2022/09/05 11:32:53;;;;;;;0.80;0.80;;;;;;;28.31;43.45;99995.75;4444113;32;33390;-81
2022/09/05 11:35:56;;;;;;;0.45;0.45;;;;;;;29.04;39.43;99983.09;4438389;32;32734;-81
2022/09/05 11:38:51;;;;;;;0.50;0.50;;;;;;;28.91;38.71;99981.38;4444914;32;35140;-81
2022/09/05 11:41:55;;;;;;;1.80;1.13;;;;;;;27.77;38.95;99984.44;4439655;32;34289;-81
2022/09/05 11:44:38;;;;;;;0.85;0.85;;;;;;;27.87;39.34;99983.78;4441237;32;33320;-82
2022/09/05 11:47:32;;;;;;;1.02;0.98;;;;;;;28.31;39.41;99982.38;4450069;32;34700;-81
2022/09/05 11:50:10;;;;;;;0.55;0.55;;;;;;;29.37;37.42;99976.13;4438877;32;35024;-80
2022/09/05 11:53:04;;;;;;;0.50;0.50;;;;;;;30.36;38.02;99969.03;4438031;32;34968;-80
2022/09/05 11:55:48;;;;;;;0.30;0.30;;;;;;;28.77;37.04;99976.22;4437978;32;34247;-80
2022/09/05 11:58:35;;;;;;;1.02;0.95;;;;;;;28.01;38.49;99967.59;4439341;32;33984;-80
2022/09/05 12:01:26;;;;;;;0.20;0.20;;;;;;;28.30;39.75;99972.59;4439465;32;34920;-81
2022/09/05 12:04:46;;;;;;;1.08;0.60;;;;;;;29.40;39.57;99970.47;4433685;32;33716;-80
2022/09/05 12:07:38;;;;;;;1.12;1.02;;;;;;;29.74;39.29;99968.63;4438268;32;33372;-81
2022/09/05 12:10:09;;;;;;;0.40;0.40;;;;;;;29.25;39.46;99968.03;4448767;32;34626;-81
2022/09/05 12:13:15;;;;;;;0.85;0.85;;;;;;;28.96;40.51;99972.13;4454828;32;34926;-82
2022/09/05 12:15:48;;;;;;;1.08;0.98;;;;;;;29.39;38.35;99968.78;4439542;32;33940;-81
2022/09/05 12:18:40;;;;;;;0.55;0.55;;;;;;;29.29;37.69;99961.44;4438576;32;33501;-82
2022/09/05 12:21:33;;;;;;;0.45;0.37;;;;;;;28.42;38.29;99960.97;4439043;32;34728;-83
2022/09/05 12:24:16;;;;;;;0.73;0.73;;;;;;;27.56;42.13;99956.53;4441693;32;36037;-82
2022/09/05 12:27:14;;;;;;;2.15;1.70;;;;;;;28.11;40.03;99957.03;4453685;32;34252;-82
2022/09/05 12:30:08;;;;;;;0.47;0.40;;;;;;;28.28;39.63;99958.47;4443057;32;33445;-82
2022/09/05 12:32:50;;;;;;;1.90;1.30;;;;;;;28.88;40.94;99957.47;4427201;32;33901;-82
2022/09/05 12:35:47;;;;;;;0.62;0.60;;;;;;;28.51;39.30;99948.69;4440891;32;35006;-81
2022/09/05 12:38:59;;;;;;;0.75;0.65;;;;;;;27.99;39.60;99945.44;4437363;32;35282;-82
2022/09/05 12:41:59;;;;;;;0.80;0.73;;;;;;;29.23;35.77;99940.50;4438291;32;33889;-83
2022/09/05 12:45:10;;;;;;;3.22;0.55;;;;;;;28.91;35.68;99935.81;4438033;32;34742;-82
2022/09/05 12:47:53;;;;;;;0.30;0.30;;;;;;;28.80;36.95;99927.75;4440833;32;35026;-80
2022/09/05 12:50:32;;;;;;;3.90;1.37;;;;;;;28.50;36.87;99937.16;4439835;32;34506;-82
2022/09/05 12:53:05;;;;;;;1.50;0.82;;;;;;;28.63;34.74;99929.03;4448794;32;31992;-81
2022/09/05 12:55:44;;;;;;;0.73;0.73;;;;;;;28.40;36.88;99928.09;4449420;32;33343;-83
2022/09/05 12:58:34;;;;;;;1.33;0.80;;;;;;;28.54;37.87;99921.72;4452763;32;34357;-82
2022/09/05 13:01:32;;;;;;;0.85;0.82;;;;;;;29.82;33.93;99919.72;4437493;32;32815;-84
2022/09/05 13:04:27;;;;;;;0.28;0.17;;;;;;;29.57;36.07;99919.00;4437815;32;33302;-81
2022/09/05 13:07:05;;;;;;;0.32;0.32;;;;;;;29.29;35.86;99923.06;4437079;32;33883;-81
2022/09/05 13:10:16;;;;;;;0.35;0.35;;;;;;;29.27;36.01;99908.91;4442590;32;35110;-82